createdAt,value
2023-02-27T00:02:00.136Z,103012.81
2023-02-27T00:04:26.723Z,103006.81
2023-02-27T00:06:53.157Z,103007.88
2023-02-27T00:09:19.611Z,103008.97
2023-02-27T00:11:46.058Z,103021.59
2023-02-27T00:14:12.535Z,103020.06
2023-02-27T00:16:38.968Z,103020.34
2023-02-27T00:19:05.498Z,103014.34
2023-02-27T00:21:32.606Z,103013.91
2023-02-27T00:23:59.190Z,103009.44
2023-02-27T00:26:25.886Z,103001.56
2023-02-27T00:28:52.318Z,103010.19
2023-02-27T00:31:19.178Z,103007.56
2023-02-27T00:33:45.702Z,103000.81
2023-02-27T00:36:12.299Z,102998.81
2023-02-27T00:38:38.781Z,102997.25
2023-02-27T00:41:05.323Z,102996.81
2023-02-27T00:43:31.805Z,103001.56
2023-02-27T00:45:58.616Z,103002.97
2023-02-27T00:48:25.104Z,102992.03
2023-02-27T00:50:51.643Z,102994.97
2023-02-27T00:53:18.465Z,102995.28
2023-02-27T00:55:44.914Z,102995.88
2023-02-27T00:58:11.603Z,102987.09
2023-02-27T01:00:38.182Z,102987.75
2023-02-27T01:03:04.898Z,102997.00
2023-02-27T01:05:31.390Z,102993.91
2023-02-27T01:07:59.514Z,102989.28
2023-02-27T01:10:25.998Z,102987.00
2023-02-27T01:12:52.456Z,102985.44
2023-02-27T01:15:19.017Z,102987.59
2023-02-27T01:17:48.043Z,102995.00
2023-02-27T01:20:15.303Z,102994.84
2023-02-27T01:22:41.844Z,102999.59
2023-02-27T01:25:10.385Z,102999.91
2023-02-27T01:27:39.513Z,102997.44
2023-02-27T01:30:07.000Z,102999.44
2023-02-27T01:32:33.633Z,102992.97
2023-02-27T01:35:00.133Z,103001.75
2023-02-27T01:37:26.585Z,102987.13
2023-02-27T01:39:53.047Z,102992.81
2023-02-27T01:42:22.962Z,102985.25
2023-02-27T01:45:18.294Z,102987.72
2023-02-27T01:47:50.964Z,102990.16
2023-02-27T01:50:18.962Z,102981.69
2023-02-27T01:52:51.505Z,102991.53
2023-02-27T01:55:19.823Z,102989.22
2023-02-27T01:57:48.395Z,102987.22
2023-02-27T02:00:15.751Z,102987.84
2023-02-27T02:02:49.843Z,102983.81
2023-02-27T02:05:16.516Z,102981.97
2023-02-27T02:07:45.397Z,102988.09
2023-02-27T02:10:14.972Z,102981.94
2023-02-27T02:12:41.750Z,102985.28
2023-02-27T02:15:09.406Z,102986.66
2023-02-27T02:17:59.965Z,102981.13
2023-02-27T02:20:54.340Z,102988.50
2023-02-27T02:23:58.299Z,102987.56
2023-02-27T02:26:47.609Z,102991.56
2023-02-27T02:29:32.560Z,102994.63
2023-02-27T02:32:36.934Z,102991.03
2023-02-27T02:35:41.001Z,102993.03
2023-02-27T02:38:45.032Z,102985.63
2023-02-27T02:41:39.558Z,102985.16
2023-02-27T02:44:27.405Z,102992.38
2023-02-27T02:47:08.086Z,102991.91
2023-02-27T02:50:05.352Z,102993.94
2023-02-27T02:52:51.420Z,102994.88
2023-02-27T02:55:34.386Z,102991.97
2023-02-27T02:58:21.126Z,102989.06
2023-02-27T03:00:55.458Z,102994.28
2023-02-27T03:03:27.748Z,102997.97
2023-02-27T03:06:06.519Z,102993.03
2023-02-27T03:08:58.350Z,102989.94
2023-02-27T03:11:29.644Z,102990.25
2023-02-27T03:14:08.089Z,102992.09
2023-02-27T03:16:48.487Z,102991.63
2023-02-27T03:19:23.341Z,102993.00
2023-02-27T03:21:55.973Z,102992.50
2023-02-27T03:24:36.198Z,102995.72
2023-02-27T03:27:06.120Z,102992.47
2023-02-27T03:30:01.234Z,102993.97
2023-02-27T03:32:35.662Z,102986.44
2023-02-27T03:35:04.650Z,102985.03
2023-02-27T03:37:58.961Z,102982.13
2023-02-27T03:40:33.844Z,102976.91
2023-02-27T03:43:17.264Z,102976.72
2023-02-27T03:46:25.385Z,102977.31
2023-02-27T03:48:52.933Z,102971.81
2023-02-27T03:51:22.470Z,102978.56
2023-02-27T03:54:03.760Z,102978.84
2023-02-27T03:56:42.891Z,102979.16
2023-02-27T03:59:09.710Z,102974.81
2023-02-27T04:01:40.380Z,102973.09
2023-02-27T04:04:15.251Z,102994.56
2023-02-27T04:07:28.338Z,102991.78
2023-02-27T04:10:04.094Z,102996.22
2023-02-27T04:12:38.468Z,102996.53
2023-02-27T04:15:18.153Z,102996.22
2023-02-27T04:18:21.257Z,103008.69
2023-02-27T04:20:58.057Z,103006.56
2023-02-27T04:23:42.765Z,103009.94
2023-02-27T04:26:25.253Z,103013.59
2023-02-27T04:29:08.438Z,103015.44
2023-02-27T04:31:58.634Z,103015.75
2023-02-27T04:34:40.567Z,103012.38
2023-02-27T04:37:12.974Z,103016.03
2023-02-27T04:39:51.773Z,103018.94
2023-02-27T04:42:24.394Z,103020.00
2023-02-27T04:44:54.814Z,103028.91
2023-02-27T04:47:24.038Z,103028.41
2023-02-27T04:49:59.319Z,103030.56
2023-02-27T04:52:33.567Z,103028.38
2023-02-27T04:55:17.776Z,103030.72
2023-02-27T04:57:52.630Z,103035.66
2023-02-27T05:00:22.429Z,103031.97
2023-02-27T05:02:54.976Z,103036.59
2023-02-27T05:05:26.654Z,103025.88
2023-02-27T05:08:20.560Z,103030.81
2023-02-27T05:10:53.748Z,103034.94
2023-02-27T05:13:31.594Z,103026.66
2023-02-27T05:16:07.542Z,103034.47
2023-02-27T05:18:34.770Z,103029.84
2023-02-27T05:21:29.641Z,103038.44
2023-02-27T05:24:05.952Z,103047.81
2023-02-27T05:26:57.064Z,103045.19
2023-02-27T05:29:23.585Z,103044.13
2023-02-27T05:32:23.937Z,103041.25
2023-02-27T05:34:56.508Z,103051.97
2023-02-27T05:37:33.485Z,103053.03
2023-02-27T05:40:06.507Z,103051.78
2023-02-27T05:42:38.119Z,103049.16
2023-02-27T05:45:11.596Z,103049.47
2023-02-27T05:47:43.878Z,103049.75
2023-02-27T05:50:14.395Z,103051.28
2023-02-27T05:52:42.919Z,103060.66
2023-02-27T05:55:17.797Z,103053.63
2023-02-27T05:57:51.393Z,103057.00
2023-02-27T06:00:29.715Z,103056.22
2023-02-27T06:02:56.326Z,103062.97
2023-02-27T06:05:26.015Z,103054.09
2023-02-27T06:07:52.570Z,103061.16
2023-02-27T06:10:21.257Z,103063.47
2023-02-27T06:12:48.221Z,103067.91
2023-02-27T06:15:14.803Z,103073.59
2023-02-27T06:17:41.246Z,103087.41
2023-02-27T06:20:09.038Z,103081.72
2023-02-27T06:22:35.930Z,103097.84
2023-02-27T06:25:03.840Z,103093.41
2023-02-27T06:27:30.565Z,103103.53
2023-02-27T06:29:57.624Z,103106.16
2023-02-27T06:32:25.709Z,103108.47
2023-02-27T06:34:53.131Z,103112.34
2023-02-27T06:37:21.515Z,103108.63
2023-02-27T06:39:48.115Z,103122.44
2023-02-27T06:42:14.633Z,103113.25
2023-02-27T06:44:41.119Z,103111.13
2023-02-27T06:47:07.581Z,103111.63
2023-02-27T06:49:34.285Z,103112.09
2023-02-27T06:52:00.719Z,103121.19
2023-02-27T06:54:27.189Z,103116.44
2023-02-27T06:56:53.671Z,103118.47
2023-02-27T06:59:20.175Z,103126.00
2023-02-27T07:01:46.696Z,103122.81
2023-02-27T07:04:15.302Z,103120.38
2023-02-27T07:07:32.697Z,103124.25
2023-02-27T07:09:28.618Z,103129.34
2023-02-27T07:11:55.135Z,103132.94
2023-02-27T07:14:22.169Z,103128.63
2023-02-27T07:16:50.980Z,103125.91
2023-02-27T07:19:18.460Z,103130.53
2023-02-27T07:21:45.346Z,103124.72
2023-02-27T07:24:11.847Z,103119.69
2023-02-27T07:26:38.543Z,103131.84
2023-02-27T07:29:05.609Z,103130.38
2023-02-27T07:31:32.663Z,103134.91
2023-02-27T07:33:59.350Z,103140.16
2023-02-27T07:36:26.069Z,103129.75
2023-02-27T07:38:52.797Z,103131.34
2023-02-27T07:41:30.063Z,103130.34
2023-02-27T07:43:59.804Z,103131.13
2023-02-27T07:46:27.651Z,103133.50
2023-02-27T07:48:54.814Z,103132.75
2023-02-27T07:51:21.567Z,103123.88
2023-02-27T07:53:48.115Z,103128.50
2023-02-27T07:56:14.763Z,103137.94
2023-02-27T07:58:41.213Z,103133.97
2023-02-27T08:01:07.894Z,103142.31
2023-02-27T08:03:34.438Z,103142.75
2023-02-27T08:06:02.362Z,103135.38
2023-02-27T08:08:29.568Z,103156.50
2023-02-27T08:10:56.218Z,103152.81
2023-02-27T08:13:42.280Z,103154.03
2023-02-27T08:16:09.359Z,103154.66
2023-02-27T08:18:36.161Z,103152.19
2023-02-27T08:21:04.937Z,103156.78
2023-02-27T08:23:32.484Z,103155.06
2023-02-27T08:25:59.035Z,103168.63
2023-02-27T08:28:25.574Z,103161.19
2023-02-27T08:30:52.059Z,103163.13
2023-02-27T08:33:18.556Z,103165.09
2023-02-27T08:35:45.416Z,103162.59
2023-02-27T08:38:11.971Z,103158.81
2023-02-27T08:40:38.497Z,103170.38
2023-02-27T08:43:04.997Z,103174.34
2023-02-27T08:45:31.705Z,103175.41
2023-02-27T08:47:58.291Z,103176.44
2023-02-27T08:50:24.736Z,103187.19
2023-02-27T08:52:51.221Z,103184.50
2023-02-27T08:55:17.772Z,103189.59
2023-02-27T08:57:44.304Z,103183.81
2023-02-27T09:00:14.499Z,103185.50
2023-02-27T09:02:41.543Z,103193.97
2023-02-27T09:05:08.570Z,103190.38
2023-02-27T09:07:35.086Z,103192.47
2023-02-27T09:10:01.591Z,103196.31
2023-02-27T09:12:28.098Z,103196.38
2023-02-27T09:14:54.791Z,103198.19
2023-02-27T09:17:21.688Z,103198.09
2023-02-27T09:19:48.205Z,103201.72
2023-02-27T09:22:14.706Z,103199.88
2023-02-27T09:24:41.167Z,103200.00
2023-02-27T09:27:07.685Z,103194.66
2023-02-27T09:29:34.332Z,103194.13
2023-02-27T09:32:01.165Z,103203.47
2023-02-27T09:34:27.743Z,103204.94
2023-02-27T09:36:54.227Z,103198.34
2023-02-27T09:39:20.702Z,103194.75
2023-02-27T09:42:06.624Z,103207.69
2023-02-27T09:44:46.607Z,103194.00
2023-02-27T09:47:35.576Z,103194.78
2023-02-27T09:50:10.926Z,103202.88
2023-02-27T09:52:37.685Z,103201.22
2023-02-27T09:55:19.618Z,103203.00
2023-02-27T09:57:51.705Z,103203.97
2023-02-27T10:00:38.252Z,103203.97
2023-02-27T10:03:43.617Z,103204.50
2023-02-27T10:06:27.050Z,103201.22
2023-02-27T10:09:06.228Z,103208.56
2023-02-27T10:11:49.155Z,103199.09
2023-02-27T10:14:39.431Z,103206.53
2023-02-27T10:17:13.448Z,103203.84
2023-02-27T10:19:41.318Z,103205.03
2023-02-27T10:22:14.195Z,103196.41
2023-02-27T10:24:47.349Z,103193.84
2023-02-27T10:27:17.649Z,103198.31
2023-02-27T10:29:44.213Z,103198.88
2023-02-27T10:32:23.525Z,103196.53
2023-02-27T10:35:16.616Z,103194.75
2023-02-27T10:37:49.502Z,103200.63
2023-02-27T10:40:17.668Z,103195.38
2023-02-27T10:42:44.877Z,103199.19
2023-02-27T10:45:15.729Z,103204.75
2023-02-27T10:47:42.565Z,103190.84
2023-02-27T10:50:23.150Z,103196.84
2023-02-27T10:52:56.479Z,103193.53
2023-02-27T10:55:29.510Z,103190.69
2023-02-27T10:58:01.406Z,103186.75
2023-02-27T11:00:54.121Z,103173.94
2023-02-27T11:03:26.487Z,103189.34
2023-02-27T11:05:56.188Z,103181.78
2023-02-27T11:08:24.395Z,103174.28
2023-02-27T11:10:58.936Z,103182.31
2023-02-27T11:13:28.490Z,103171.34
2023-02-27T11:16:04.006Z,103172.13
2023-02-27T11:18:31.349Z,103168.13
2023-02-27T11:21:22.727Z,103158.84
2023-02-27T11:24:03.864Z,103158.94
2023-02-27T11:26:33.133Z,103150.13
2023-02-27T11:29:07.440Z,103153.59
2023-02-27T11:31:36.747Z,103149.72
2023-02-27T11:34:04.925Z,103148.00
2023-02-27T11:36:46.838Z,103137.44
2023-02-27T11:39:30.385Z,103139.81
2023-02-27T11:41:59.294Z,103130.09
2023-02-27T11:44:50.586Z,103127.88
2023-02-27T11:47:30.293Z,103134.28
2023-02-27T11:50:32.532Z,103126.19
2023-02-27T11:53:04.905Z,103122.16
2023-02-27T11:55:32.248Z,103130.59
2023-02-27T11:58:13.741Z,103122.59
2023-02-27T12:00:45.489Z,103122.25
2023-02-27T12:03:20.687Z,103123.97
2023-02-27T12:05:51.028Z,103117.63
2023-02-27T12:08:48.598Z,103125.47
2023-02-27T12:11:20.587Z,103110.19
2023-02-27T12:13:52.865Z,103108.47
2023-02-27T12:16:27.386Z,103104.38
2023-02-27T12:19:00.301Z,103114.44
2023-02-27T12:21:31.920Z,103112.81
2023-02-27T12:24:10.459Z,103111.78
2023-02-27T12:26:40.731Z,103116.63
2023-02-27T12:29:26.224Z,103107.16
2023-02-27T12:31:59.782Z,103099.94
2023-02-27T12:34:29.403Z,103100.88
2023-02-27T12:37:25.246Z,103098.78
2023-02-27T12:39:54.419Z,103102.09
2023-02-27T12:42:36.641Z,103102.28
2023-02-27T12:45:31.270Z,103087.97
2023-02-27T12:48:16.497Z,103101.03
2023-02-27T12:50:54.683Z,103094.94
2023-02-27T12:53:31.007Z,103098.91
2023-02-27T12:56:21.753Z,103094.66
2023-02-27T12:58:58.798Z,103096.47
2023-02-27T13:01:48.110Z,103094.59
2023-02-27T13:04:26.033Z,103095.03
2023-02-27T13:07:08.549Z,103087.03
2023-02-27T13:09:51.990Z,103090.56
2023-02-27T13:13:12.893Z,103088.28
2023-02-27T13:15:54.445Z,103095.31
2023-02-27T13:18:39.469Z,103096.97
2023-02-27T13:21:12.313Z,103087.16
2023-02-27T13:24:13.291Z,103086.78
2023-02-27T13:26:48.022Z,103073.84
2023-02-27T13:29:16.456Z,103079.75
2023-02-27T13:32:04.125Z,103077.50
2023-02-27T13:34:37.100Z,103077.78
2023-02-27T13:37:06.101Z,103076.22
2023-02-27T13:39:46.873Z,103078.13
2023-02-27T13:42:25.447Z,103085.94
2023-02-27T13:44:54.188Z,103084.97
2023-02-27T13:47:29.345Z,103083.03
2023-02-27T13:50:01.966Z,103084.34
2023-02-27T13:52:37.655Z,103075.75
2023-02-27T13:55:12.061Z,103081.91
2023-02-27T13:57:39.012Z,103066.69
2023-02-27T14:00:08.990Z,103058.91
2023-02-27T14:02:59.737Z,103062.72
2023-02-27T14:05:35.096Z,103062.56
2023-02-27T14:08:16.776Z,103076.63
2023-02-27T14:11:16.284Z,103073.00
2023-02-27T14:13:49.199Z,103061.19
2023-02-27T14:16:37.653Z,103066.66
2023-02-27T14:19:16.399Z,103052.38
2023-02-27T14:21:57.913Z,103058.06
2023-02-27T14:24:44.782Z,103066.44
2023-02-27T14:27:22.498Z,103062.69
2023-02-27T14:29:52.037Z,103068.09
2023-02-27T14:32:26.190Z,103061.97
2023-02-27T14:34:54.784Z,103070.78
2023-02-27T14:37:25.806Z,103079.91
2023-02-27T14:39:54.562Z,103071.09
2023-02-27T14:42:46.259Z,103060.88
2023-02-27T14:45:18.365Z,103070.56
2023-02-27T14:47:46.627Z,103063.72
2023-02-27T14:50:34.045Z,103071.81
2023-02-27T14:53:01.649Z,103071.84
2023-02-27T14:55:37.186Z,103071.28
2023-02-27T14:58:21.440Z,103073.41
2023-02-27T15:00:58.099Z,103067.34
2023-02-27T15:03:30.035Z,103062.56
2023-02-27T15:05:59.259Z,103060.75
2023-02-27T15:08:29.717Z,103059.69
2023-02-27T15:10:58.448Z,103068.94
2023-02-27T15:13:29.391Z,103059.66
2023-02-27T15:16:21.090Z,103067.72
2023-02-27T15:18:52.197Z,103063.25
2023-02-27T15:21:20.895Z,103064.28
2023-02-27T15:24:02.025Z,103069.88
2023-02-27T15:26:30.894Z,103071.34
2023-02-27T15:28:59.822Z,103067.53
2023-02-27T15:31:31.005Z,103068.50
2023-02-27T15:33:59.732Z,103072.13
2023-02-27T15:36:30.723Z,103072.03
2023-02-27T15:39:15.357Z,103073.41
2023-02-27T15:41:49.127Z,103077.09
2023-02-27T15:44:18.588Z,103077.03
2023-02-27T15:46:46.819Z,103073.13
2023-02-27T15:49:22.811Z,103077.22
2023-02-27T15:51:59.165Z,103073.81
2023-02-27T15:54:26.266Z,103086.19
2023-02-27T15:56:53.693Z,103080.44
2023-02-27T15:59:20.383Z,103084.91
2023-02-27T16:01:49.501Z,103081.16
2023-02-27T16:04:24.023Z,103078.94
2023-02-27T16:07:01.712Z,103080.44
2023-02-27T16:09:34.071Z,103077.44
2023-02-27T16:12:25.355Z,103072.16
2023-02-27T16:14:53.480Z,103077.09
2023-02-27T16:17:26.984Z,103073.34
2023-02-27T16:19:54.937Z,103079.31
2023-02-27T16:22:22.592Z,103074.34
2023-02-27T16:24:49.788Z,103073.56
2023-02-27T16:27:29.904Z,103074.38
2023-02-27T16:30:02.485Z,103084.50
2023-02-27T16:32:39.741Z,103082.53
2023-02-27T16:35:15.074Z,103082.88
2023-02-27T16:37:43.385Z,103081.00
2023-02-27T16:40:16.710Z,103087.69
2023-02-27T16:42:44.127Z,103083.44
2023-02-27T16:45:16.784Z,103078.06
2023-02-27T16:47:43.711Z,103082.50
2023-02-27T16:50:19.130Z,103085.84
2023-02-27T16:52:45.912Z,103087.63
2023-02-27T16:55:12.582Z,103081.13
2023-02-27T16:57:39.145Z,103084.78
2023-02-27T17:00:09.653Z,103077.47
2023-02-27T17:02:36.196Z,103081.91
2023-02-27T17:05:02.914Z,103080.31
2023-02-27T17:07:30.406Z,103083.19
2023-02-27T17:09:57.088Z,103084.22
2023-02-27T17:12:23.543Z,103091.66
2023-02-27T17:14:50.015Z,103089.69
2023-02-27T17:17:16.527Z,103096.78
2023-02-27T17:19:43.255Z,103103.06
2023-02-27T17:22:09.699Z,103102.56
2023-02-27T17:24:37.334Z,103108.53
2023-02-27T17:27:03.932Z,103108.78
2023-02-27T17:29:30.667Z,103107.25
2023-02-27T17:31:57.595Z,103105.28
2023-02-27T17:34:24.855Z,103108.94
2023-02-27T17:36:51.488Z,103106.88
2023-02-27T17:39:18.060Z,103110.13
2023-02-27T17:41:45.120Z,103114.88
2023-02-27T17:44:12.364Z,103115.22
2023-02-27T17:46:40.315Z,103118.09
2023-02-27T17:49:07.242Z,103125.94
2023-02-27T17:51:33.984Z,103120.13
2023-02-27T17:54:02.101Z,103126.41
2023-02-27T17:56:29.054Z,103125.53
2023-02-27T17:58:55.731Z,103123.47
2023-02-27T18:01:25.755Z,103123.75
2023-02-27T18:03:54.798Z,103119.81
2023-02-27T18:06:22.685Z,103127.53
2023-02-27T18:08:49.622Z,103134.88
2023-02-27T18:11:18.871Z,103127.88
2023-02-27T18:13:46.522Z,103126.25
2023-02-27T18:16:13.342Z,103129.13
2023-02-27T18:18:41.418Z,103119.16
2023-02-27T18:21:14.361Z,103129.34
2023-02-27T18:23:42.137Z,103134.53
2023-02-27T18:26:27.165Z,103137.72
2023-02-27T18:28:56.603Z,103133.75
2023-02-27T18:31:29.865Z,103135.84
2023-02-27T18:33:56.520Z,103136.72
2023-02-27T18:36:23.118Z,103139.94
2023-02-27T18:38:49.552Z,103136.75
2023-02-27T18:41:16.007Z,103137.41
2023-02-27T18:43:43.645Z,103137.41
2023-02-27T18:46:12.664Z,103149.38
2023-02-27T18:48:40.548Z,103149.25
2023-02-27T18:51:12.213Z,103154.41
2023-02-27T18:53:40.811Z,103158.47
2023-02-27T18:56:09.047Z,103159.44
2023-02-27T18:58:36.396Z,103165.47
2023-02-27T19:01:07.359Z,103160.53
2023-02-27T19:03:35.946Z,103158.56
2023-02-27T19:06:02.670Z,103155.81
2023-02-27T19:08:29.271Z,103164.72
2023-02-27T19:10:57.188Z,103163.06
2023-02-27T19:13:25.284Z,103164.91
2023-02-27T19:15:52.523Z,103161.19
2023-02-27T19:18:19.349Z,103165.34
2023-02-27T19:20:46.035Z,103165.34
2023-02-27T19:23:12.544Z,103163.16
2023-02-27T19:25:39.221Z,103170.72
2023-02-27T19:28:06.341Z,103171.06
2023-02-27T19:30:32.812Z,103172.59
2023-02-27T19:32:59.325Z,103165.03
2023-02-27T19:35:25.801Z,103165.81
2023-02-27T19:37:56.888Z,103168.75
2023-02-27T19:40:24.525Z,103170.28
2023-02-27T19:42:51.519Z,103169.84
2023-02-27T19:45:18.531Z,103172.47
2023-02-27T19:47:46.497Z,103176.53
2023-02-27T19:50:13.065Z,103176.84
2023-02-27T19:52:39.531Z,103182.00
2023-02-27T19:55:06.523Z,103184.50
2023-02-27T19:57:34.954Z,103184.81
2023-02-27T20:00:01.494Z,103188.88
2023-02-27T20:02:28.120Z,103192.91
2023-02-27T20:04:54.673Z,103189.84
2023-02-27T20:07:21.174Z,103194.97
2023-02-27T20:09:47.673Z,103190.38
2023-02-27T20:12:14.481Z,103189.47
2023-02-27T20:14:41.603Z,103194.59
2023-02-27T20:17:08.349Z,103188.94
2023-02-27T20:19:36.351Z,103190.03
2023-02-27T20:22:03.459Z,103194.84
2023-02-27T20:24:29.975Z,103199.00
2023-02-27T20:26:59.147Z,103192.97
2023-02-27T20:29:27.587Z,103193.31
2023-02-27T20:31:55.429Z,103194.38
2023-02-27T20:34:26.116Z,103196.13
2023-02-27T20:36:54.586Z,103192.59
2023-02-27T20:39:22.842Z,103185.69
2023-02-27T20:41:49.508Z,103190.47
2023-02-27T20:44:16.365Z,103183.25
2023-02-27T20:46:44.176Z,103176.31
2023-02-27T20:49:14.929Z,103192.72
2023-02-27T20:51:42.203Z,103184.72
2023-02-27T20:54:13.708Z,103185.34
2023-02-27T20:56:41.324Z,103188.66
2023-02-27T20:59:11.826Z,103182.50
2023-02-27T21:01:38.877Z,103193.66
2023-02-27T21:04:06.050Z,103190.13
2023-02-27T21:06:32.808Z,103195.25
2023-02-27T21:09:03.821Z,103188.00
2023-02-27T21:11:32.153Z,103187.53
2023-02-27T21:14:03.242Z,103188.50
2023-02-27T21:16:29.985Z,103181.25
2023-02-27T21:18:56.880Z,103183.44
2023-02-27T21:21:27.689Z,103179.91
2023-02-27T21:23:54.752Z,103182.84
2023-02-27T21:26:24.985Z,103192.13
2023-02-27T21:29:00.489Z,103184.91
2023-02-27T21:31:30.941Z,103186.31
2023-02-27T21:34:00.112Z,103190.66
2023-02-27T21:36:29.261Z,103190.53
2023-02-27T21:38:58.523Z,103192.69
2023-02-27T21:41:25.144Z,103197.81
2023-02-27T21:43:51.620Z,103194.28
2023-02-27T21:46:20.683Z,103195.66
2023-02-27T21:48:47.314Z,103204.16
2023-02-27T21:51:13.982Z,103198.78
2023-02-27T21:53:40.514Z,103211.75
2023-02-27T21:56:10.609Z,103207.16
2023-02-27T21:58:38.039Z,103200.66
2023-02-27T22:01:15.417Z,103205.81
2023-02-27T22:03:46.682Z,103206.44
2023-02-27T22:06:14.919Z,103206.28
2023-02-27T22:08:41.593Z,103216.31
2023-02-27T22:11:08.540Z,103212.47
2023-02-27T22:13:35.900Z,103204.91
2023-02-27T22:16:11.688Z,103200.91
2023-02-27T22:18:39.467Z,103204.75
2023-02-27T22:21:12.559Z,103199.63
2023-02-27T22:23:39.819Z,103197.00
2023-02-27T22:26:12.598Z,103198.25
2023-02-27T22:28:41.228Z,103192.03
2023-02-27T22:31:30.232Z,103196.72
2023-02-27T22:34:01.016Z,103196.88
2023-02-27T22:36:29.464Z,103195.19
2023-02-27T22:38:56.763Z,103199.84
2023-02-27T22:41:27.799Z,103203.25
2023-02-27T22:43:55.421Z,103209.88
2023-02-27T22:46:33.016Z,103222.09
2023-02-27T22:49:05.307Z,103211.13
2023-02-27T22:51:32.222Z,103217.78
2023-02-27T22:54:01.694Z,103210.56
2023-02-27T22:56:28.580Z,103215.34
2023-02-27T22:58:55.119Z,103214.88
2023-02-27T23:01:24.471Z,103209.16
2023-02-27T23:03:53.239Z,103212.72
2023-02-27T23:06:22.631Z,103206.25
2023-02-27T23:08:49.758Z,103213.97
2023-02-27T23:11:18.335Z,103214.59
2023-02-27T23:13:44.937Z,103214.88
2023-02-27T23:16:13.452Z,103213.66
2023-02-27T23:18:43.138Z,103217.97
2023-02-27T23:21:10.233Z,103210.13
2023-02-27T23:23:36.909Z,103217.97
2023-02-27T23:26:05.724Z,103224.28
2023-02-27T23:28:34.353Z,103226.16
2023-02-27T23:31:01.791Z,103222.28
2023-02-27T23:33:29.359Z,103224.16
2023-02-27T23:35:57.591Z,103218.91
2023-02-27T23:38:25.180Z,103222.28
2023-02-27T23:40:51.961Z,103223.38
2023-02-27T23:43:18.566Z,103226.00
2023-02-27T23:45:45.048Z,103229.69
2023-02-27T23:48:11.690Z,103240.63
2023-02-27T23:50:40.727Z,103231.38
2023-02-27T23:53:07.604Z,103225.53
2023-02-27T23:55:36.208Z,103224.44
2023-02-27T23:58:05.594Z,103224.16
